createdAt,value
2022-12-01T00:01:02.260Z,80.92
2022-12-01T00:03:33.397Z,80.45
2022-12-01T00:06:02.176Z,81.63
2022-12-01T00:08:29.791Z,80.58
2022-12-01T00:11:07.818Z,80.57
2022-12-01T00:13:35.232Z,80.46
2022-12-01T00:16:16.573Z,79.97
2022-12-01T00:18:43.572Z,80.46
2022-12-01T00:21:18.034Z,81.25
2022-12-01T00:23:49.883Z,80.17
2022-12-01T00:26:17.914Z,80.11
2022-12-01T00:28:44.578Z,80.49
2022-12-01T00:31:12.646Z,80.24
2022-12-01T00:33:39.866Z,80.40
2022-12-01T00:36:07.367Z,81.56
2022-12-01T00:38:34.874Z,81.26
2022-12-01T00:41:02.211Z,81.50
2022-12-01T00:43:28.753Z,83.74
2022-12-01T00:45:56.588Z,83.19
2022-12-01T00:48:23.797Z,83.82
2022-12-01T00:50:52.317Z,83.29
2022-12-01T00:53:19.096Z,82.97
2022-12-01T00:55:45.899Z,83.50
2022-12-01T00:58:12.544Z,83.41
2022-12-01T01:00:39.014Z,83.25
2022-12-01T01:03:06.992Z,82.96
2022-12-01T01:05:37.845Z,83.36
2022-12-01T01:08:12.129Z,84.49
2022-12-01T01:10:45.673Z,83.98
2022-12-01T01:13:14.315Z,84.08
2022-12-01T01:15:41.466Z,83.93
2022-12-01T01:18:09.787Z,84.15
2022-12-01T01:20:36.317Z,84.88
2022-12-01T01:23:03.029Z,83.80
2022-12-01T01:25:31.278Z,84.05
2022-12-01T01:27:57.912Z,85.20
2022-12-01T01:30:24.482Z,84.54
2022-12-01T01:32:51.110Z,84.38
2022-12-01T01:35:17.786Z,83.92
2022-12-01T01:37:44.384Z,84.60
2022-12-01T01:40:11.446Z,84.33
2022-12-01T01:42:37.962Z,83.81
2022-12-01T01:45:05.471Z,84.03
2022-12-01T01:47:37.804Z,83.92
2022-12-01T01:50:10.122Z,84.06
2022-12-01T01:52:41.131Z,84.78
2022-12-01T01:55:08.122Z,84.32
2022-12-01T01:57:35.355Z,84.61
2022-12-01T02:00:09.587Z,85.10
2022-12-01T02:02:40.584Z,84.71
2022-12-01T02:05:11.120Z,84.73
2022-12-01T02:07:42.007Z,84.82
2022-12-01T02:10:12.476Z,84.41
2022-12-01T02:12:59.747Z,85.42
2022-12-01T02:15:55.624Z,85.77
2022-12-01T02:19:03.914Z,85.27
2022-12-01T02:22:02.574Z,85.13
2022-12-01T02:24:50.799Z,85.11
2022-12-01T02:27:35.208Z,85.70
2022-12-01T02:30:16.865Z,84.92
2022-12-01T02:32:49.833Z,84.80
2022-12-01T02:35:46.183Z,85.17
2022-12-01T02:38:48.476Z,85.42
2022-12-01T02:41:28.100Z,84.84
2022-12-01T02:44:13.021Z,85.05
2022-12-01T02:46:49.307Z,84.24
2022-12-01T02:49:21.644Z,84.45
2022-12-01T02:51:49.097Z,84.29
2022-12-01T02:54:16.047Z,84.57
2022-12-01T02:56:45.753Z,85.39
2022-12-01T02:59:14.151Z,84.90
2022-12-01T03:02:01.497Z,84.88
2022-12-01T03:04:54.135Z,84.78
2022-12-01T03:07:59.278Z,84.84
2022-12-01T03:10:41.536Z,84.57
2022-12-01T03:13:35.246Z,84.61
2022-12-01T03:16:16.362Z,85.17
2022-12-01T03:18:58.613Z,85.02
2022-12-01T03:21:36.135Z,84.49
2022-12-01T03:24:08.972Z,84.77
2022-12-01T03:26:38.068Z,84.78
2022-12-01T03:29:16.154Z,84.73
2022-12-01T03:31:48.561Z,84.90
2022-12-01T03:34:20.318Z,85.04
2022-12-01T03:36:53.569Z,84.38
2022-12-01T03:39:26.755Z,84.81
2022-12-01T03:42:08.421Z,84.60
2022-12-01T03:44:43.171Z,85.31
2022-12-01T03:47:15.721Z,84.53
2022-12-01T03:49:44.121Z,84.38
2022-12-01T03:52:22.027Z,84.83
2022-12-01T03:55:13.763Z,84.85
2022-12-01T03:57:49.935Z,85.54
2022-12-01T04:00:17.217Z,84.89
2022-12-01T04:02:44.969Z,84.44
2022-12-01T04:05:12.634Z,85.16
2022-12-01T04:07:39.766Z,84.88
2022-12-01T04:10:07.789Z,84.18
2022-12-01T04:12:34.689Z,84.60
2022-12-01T04:15:05.966Z,84.54
2022-12-01T04:17:32.472Z,84.29
2022-12-01T04:19:59.153Z,83.98
2022-12-01T04:22:26.413Z,85.06
2022-12-01T04:24:53.313Z,83.78
2022-12-01T04:27:20.749Z,84.80
2022-12-01T04:29:47.886Z,84.85
2022-12-01T04:32:14.897Z,84.62
2022-12-01T04:34:41.513Z,85.07
2022-12-01T04:37:09.991Z,85.16
2022-12-01T04:39:36.844Z,84.76
2022-12-01T04:42:04.239Z,84.85
2022-12-01T04:44:34.767Z,84.47
2022-12-01T04:47:02.963Z,84.66
2022-12-01T04:49:29.802Z,84.08
2022-12-01T04:51:56.436Z,84.70
2022-12-01T04:54:22.953Z,85.25
2022-12-01T04:56:49.550Z,84.58
2022-12-01T04:59:16.514Z,85.34
2022-12-01T05:01:43.111Z,84.95
2022-12-01T05:04:13.302Z,85.04
2022-12-01T05:06:40.369Z,85.27
2022-12-01T05:09:07.252Z,85.23
2022-12-01T05:11:33.873Z,85.21
2022-12-01T05:14:01.224Z,85.04
2022-12-01T05:16:32.424Z,84.29
2022-12-01T05:19:21.062Z,85.26
2022-12-01T05:21:49.062Z,84.61
2022-12-01T05:24:16.375Z,85.16
2022-12-01T05:26:44.208Z,84.96
2022-12-01T05:29:13.112Z,85.13
2022-12-01T05:31:40.127Z,84.30
2022-12-01T05:34:07.719Z,83.94
2022-12-01T05:36:34.391Z,84.10
2022-12-01T05:39:01.001Z,84.45
2022-12-01T05:41:27.702Z,85.45
2022-12-01T05:43:54.257Z,84.43
2022-12-01T05:46:20.766Z,85.24
2022-12-01T05:48:47.543Z,85.30
2022-12-01T05:51:16.743Z,85.45
2022-12-01T05:53:43.925Z,85.49
2022-12-01T05:56:10.898Z,85.51
2022-12-01T05:58:37.813Z,85.62
2022-12-01T06:01:06.571Z,85.61
2022-12-01T06:03:33.087Z,85.89
2022-12-01T06:05:59.618Z,85.82
2022-12-01T06:08:26.197Z,85.93
2022-12-01T06:10:52.750Z,85.31
2022-12-01T06:13:19.351Z,85.31
2022-12-01T06:15:45.988Z,85.95
2022-12-01T06:18:12.729Z,85.02
2022-12-01T06:20:39.297Z,85.56
2022-12-01T06:23:05.873Z,85.24
2022-12-01T06:25:32.446Z,86.82
2022-12-01T06:27:59.287Z,85.96
2022-12-01T06:30:26.486Z,85.67
2022-12-01T06:32:53.093Z,85.98
2022-12-01T06:35:19.741Z,87.14
2022-12-01T06:37:46.302Z,86.43
2022-12-01T06:40:13.111Z,86.42
2022-12-01T06:42:39.579Z,86.78
2022-12-01T06:45:06.567Z,86.66
2022-12-01T06:47:33.208Z,87.61
2022-12-01T06:49:59.902Z,88.07
2022-12-01T06:52:26.407Z,88.80
2022-12-01T06:54:53.101Z,86.64
2022-12-01T06:57:20.054Z,86.97
2022-12-01T06:59:47.373Z,86.52
2022-12-01T07:02:14.441Z,86.50
2022-12-01T07:04:41.051Z,85.81
2022-12-01T07:07:07.840Z,85.95
2022-12-01T07:09:34.744Z,86.34
2022-12-01T07:12:01.528Z,86.32
2022-12-01T07:14:28.355Z,86.37
2022-12-01T07:16:55.147Z,87.21
2022-12-01T07:19:21.847Z,87.77
2022-12-01T07:21:48.431Z,87.28
2022-12-01T07:24:15.247Z,87.98
2022-12-01T07:26:42.312Z,87.71
2022-12-01T07:29:11.323Z,89.04
2022-12-01T07:31:38.784Z,88.68
2022-12-01T07:34:06.083Z,87.76
2022-12-01T07:36:32.686Z,88.46
2022-12-01T07:38:59.268Z,87.80
2022-12-01T07:41:26.168Z,89.05
2022-12-01T07:43:52.795Z,88.62
2022-12-01T07:46:25.436Z,89.30
2022-12-01T07:48:53.390Z,89.10
2022-12-01T07:51:21.360Z,89.93
2022-12-01T07:53:49.355Z,89.72
2022-12-01T07:56:17.149Z,90.43
2022-12-01T07:58:43.813Z,90.77
2022-12-01T08:01:12.998Z,90.95
2022-12-01T08:03:40.679Z,90.87
2022-12-01T08:06:08.592Z,91.39
2022-12-01T08:08:37.184Z,91.65
2022-12-01T08:11:06.619Z,91.82
2022-12-01T08:13:33.889Z,91.43
2022-12-01T08:16:04.234Z,91.33
2022-12-01T08:18:31.861Z,91.08
2022-12-01T08:20:59.183Z,91.26
2022-12-01T08:23:25.903Z,91.11
2022-12-01T08:25:55.418Z,91.99
2022-12-01T08:28:21.948Z,92.01
2022-12-01T08:30:48.587Z,91.06
2022-12-01T08:33:15.129Z,92.14
2022-12-01T08:35:41.624Z,91.69
2022-12-01T08:38:09.533Z,91.30
2022-12-01T08:40:36.421Z,90.93
2022-12-01T08:43:03.401Z,91.94
2022-12-01T08:45:30.101Z,90.26
2022-12-01T08:48:00.081Z,91.81
2022-12-01T08:50:27.899Z,91.05
2022-12-01T08:52:54.622Z,91.99
2022-12-01T08:55:24.331Z,91.47
2022-12-01T08:57:50.851Z,91.06
2022-12-01T09:00:17.507Z,91.65
2022-12-01T09:02:44.175Z,91.63
2022-12-01T09:05:10.728Z,90.97
2022-12-01T09:07:37.269Z,89.79
2022-12-01T09:10:05.170Z,91.15
2022-12-01T09:12:31.886Z,91.24
2022-12-01T09:14:58.483Z,91.14
2022-12-01T09:17:35.622Z,89.36
2022-12-01T09:20:06.768Z,91.07
2022-12-01T09:22:34.771Z,91.08
2022-12-01T09:25:01.282Z,89.78
2022-12-01T09:27:27.928Z,89.93
2022-12-01T09:29:54.467Z,90.04
2022-12-01T09:32:21.148Z,89.25
2022-12-01T09:34:47.671Z,90.07
2022-12-01T09:37:14.329Z,90.01
2022-12-01T09:39:40.890Z,90.48
2022-12-01T09:42:13.837Z,89.71
2022-12-01T09:44:48.793Z,89.76
2022-12-01T09:47:22.946Z,89.13
2022-12-01T09:50:13.583Z,88.72
2022-12-01T09:52:45.409Z,88.91
2022-12-01T09:55:14.504Z,88.74
2022-12-01T09:57:42.488Z,87.98
2022-12-01T10:00:16.507Z,87.75
2022-12-01T10:02:56.047Z,88.09
2022-12-01T10:05:26.934Z,87.97
2022-12-01T10:08:01.306Z,87.32
2022-12-01T10:10:33.401Z,88.20
2022-12-01T10:13:00.680Z,88.51
2022-12-01T10:16:00.725Z,88.26
2022-12-01T10:18:55.109Z,88.50
2022-12-01T10:22:09.837Z,87.79
2022-12-01T10:25:17.832Z,88.25
2022-12-01T10:28:10.576Z,86.22
2022-12-01T10:30:48.969Z,88.10
2022-12-01T10:33:25.914Z,85.13
2022-12-01T10:35:53.622Z,87.63
2022-12-01T10:38:29.141Z,87.41
2022-12-01T10:40:59.938Z,88.71
2022-12-01T10:43:35.028Z,87.88
2022-12-01T10:46:16.776Z,87.35
2022-12-01T10:48:55.062Z,86.12
2022-12-01T10:51:22.885Z,86.47
2022-12-01T10:53:49.754Z,86.90
2022-12-01T10:56:19.691Z,86.63
2022-12-01T10:58:51.421Z,85.85
2022-12-01T11:01:24.996Z,85.04
2022-12-01T11:03:57.143Z,86.31
2022-12-01T11:06:29.365Z,84.98
2022-12-01T11:09:03.452Z,84.60
2022-12-01T11:11:40.385Z,84.11
2022-12-01T11:14:22.727Z,85.89
2022-12-01T11:16:52.246Z,86.22
2022-12-01T11:19:42.344Z,84.34
2022-12-01T11:22:24.632Z,87.21
2022-12-01T11:25:21.728Z,85.85
2022-12-01T11:27:57.664Z,84.67
2022-12-01T11:30:27.110Z,85.72
2022-12-01T11:32:57.048Z,85.94
2022-12-01T11:35:28.712Z,84.88
2022-12-01T11:38:28.248Z,84.77
2022-12-01T11:40:50.240Z,85.80
2022-12-01T11:43:33.361Z,84.88
2022-12-01T11:46:04.695Z,84.23
2022-12-01T11:48:36.607Z,85.83
2022-12-01T11:51:27.721Z,83.51
2022-12-01T11:54:11.278Z,84.57
2022-12-01T11:56:37.959Z,84.31
2022-12-01T11:59:10.141Z,84.99
2022-12-01T12:02:00.358Z,84.21
2022-12-01T12:04:47.870Z,84.75
2022-12-01T12:07:47.890Z,84.34
2022-12-01T12:10:41.078Z,83.92
2022-12-01T12:13:44.241Z,81.84
2022-12-01T12:16:43.296Z,83.39
2022-12-01T12:20:09.415Z,83.16
2022-12-01T12:22:57.208Z,82.60
2022-12-01T12:25:34.186Z,82.93
2022-12-01T12:28:59.808Z,81.56
2022-12-01T12:32:02.863Z,82.45
2022-12-01T12:35:16.472Z,82.69
2022-12-01T12:38:00.301Z,82.24
2022-12-01T12:40:52.120Z,81.76
2022-12-01T12:43:34.661Z,81.20
2022-12-01T12:46:07.435Z,83.06
2022-12-01T12:49:19.778Z,80.39
2022-12-01T12:51:53.308Z,80.92
2022-12-01T12:54:32.050Z,80.38
2022-12-01T12:57:09.001Z,80.83
2022-12-01T12:59:48.614Z,81.15
2022-12-01T13:02:33.199Z,82.00
2022-12-01T13:05:34.173Z,82.14
2022-12-01T13:08:09.173Z,80.88
2022-12-01T13:10:53.690Z,78.93
2022-12-01T13:13:34.059Z,81.59
2022-12-01T13:16:03.592Z,79.57
2022-12-01T13:18:39.680Z,79.97
2022-12-01T13:21:07.463Z,80.14
2022-12-01T13:23:37.770Z,80.57
2022-12-01T13:26:08.241Z,80.19
2022-12-01T13:28:41.446Z,80.33
2022-12-01T13:31:10.808Z,78.76
2022-12-01T13:33:41.400Z,80.15
2022-12-01T13:39:15.327Z,79.60
2022-12-01T13:41:44.966Z,78.69
2022-12-01T13:44:27.303Z,79.64
2022-12-01T13:47:03.900Z,78.75
2022-12-01T13:49:51.783Z,77.78
2022-12-01T13:52:48.856Z,78.75
2022-12-01T13:55:52.523Z,78.09
2022-12-01T13:58:25.841Z,78.41
2022-12-01T14:00:52.811Z,78.66
2022-12-01T14:03:51.681Z,78.76
2022-12-01T14:06:52.796Z,77.91
2022-12-01T14:09:28.727Z,78.65
2022-12-01T14:11:59.025Z,78.41
2022-12-01T14:14:28.918Z,78.74
2022-12-01T14:16:59.150Z,78.21
2022-12-01T14:19:55.810Z,78.65
2022-12-01T14:22:47.760Z,77.66
2022-12-01T14:25:20.355Z,78.77
2022-12-01T14:27:50.939Z,78.70
2022-12-01T14:30:59.725Z,78.10
2022-12-01T14:34:14.437Z,77.63
2022-12-01T14:36:49.220Z,77.69
2022-12-01T14:39:22.799Z,77.48
2022-12-01T14:41:58.474Z,77.74
2022-12-01T14:44:31.429Z,77.72
2022-12-01T14:47:37.585Z,78.07
2022-12-01T14:50:11.907Z,77.97
2022-12-01T14:52:44.561Z,78.01
2022-12-01T14:55:25.122Z,78.08
2022-12-01T14:58:00.285Z,78.12
2022-12-01T15:00:29.783Z,78.21
2022-12-01T15:03:00.161Z,78.13
2022-12-01T15:05:29.574Z,78.28
2022-12-01T15:08:18.766Z,78.22
2022-12-01T15:10:56.922Z,78.08
2022-12-01T15:13:33.232Z,78.53
2022-12-01T15:16:05.076Z,78.34
2022-12-01T15:18:34.213Z,78.30
2022-12-01T15:21:09.855Z,78.42
2022-12-01T15:23:37.126Z,78.52
2022-12-01T15:26:04.152Z,78.61
2022-12-01T15:28:33.568Z,78.48
2022-12-01T15:31:01.779Z,78.88
2022-12-01T15:33:37.221Z,78.74
2022-12-01T15:36:05.098Z,78.83
2022-12-01T15:38:36.391Z,79.12
2022-12-01T15:44:00.476Z,78.93
2022-12-01T15:46:32.235Z,78.66
2022-12-01T15:49:15.927Z,78.53
2022-12-01T15:51:42.644Z,78.79
2022-12-01T15:54:19.527Z,78.72
2022-12-01T15:56:50.279Z,78.73
2022-12-01T15:59:27.530Z,78.75
2022-12-01T16:01:54.858Z,78.81
2022-12-01T16:04:27.248Z,78.81
2022-12-01T16:07:08.002Z,78.85
2022-12-01T16:09:37.169Z,78.84
2022-12-01T16:12:20.157Z,78.56
2022-12-01T16:15:12.766Z,78.90
2022-12-01T16:17:45.346Z,79.33
2022-12-01T16:20:39.361Z,78.83
2022-12-01T16:23:14.437Z,78.60
2022-12-01T16:25:43.634Z,78.49
2022-12-01T16:28:22.048Z,78.30
2022-12-01T16:30:49.306Z,78.51
2022-12-01T16:33:21.933Z,78.87
2022-12-01T16:35:49.382Z,79.50
2022-12-01T16:38:24.871Z,78.68
2022-12-01T16:40:54.905Z,79.60
2022-12-01T16:43:29.831Z,79.70
2022-12-01T16:49:54.485Z,80.14
2022-12-01T16:55:25.886Z,79.55
2022-12-01T16:57:52.540Z,79.72
2022-12-01T17:00:19.435Z,79.91
2022-12-01T17:02:46.231Z,80.08
2022-12-01T17:05:12.986Z,79.84
2022-12-01T17:07:39.786Z,79.77
2022-12-01T17:10:07.173Z,79.74
2022-12-01T17:12:34.768Z,79.49
2022-12-01T17:15:01.288Z,79.78
2022-12-01T17:17:29.721Z,79.72
2022-12-01T17:19:56.239Z,79.92
2022-12-01T17:22:22.774Z,79.59
2022-12-01T17:24:49.629Z,79.89
2022-12-01T17:27:16.844Z,79.66
2022-12-01T17:29:46.227Z,79.94
2022-12-01T17:32:14.311Z,80.06
2022-12-01T17:34:41.231Z,80.50
2022-12-01T17:37:08.105Z,80.38
2022-12-01T17:39:34.690Z,80.58
2022-12-01T17:42:01.274Z,80.40
2022-12-01T17:44:27.880Z,80.91
2022-12-01T17:46:54.624Z,80.41
2022-12-01T17:49:21.325Z,80.29
2022-12-01T17:51:48.216Z,80.06
2022-12-01T17:54:14.782Z,79.68
2022-12-01T17:56:41.426Z,79.69
2022-12-01T17:59:08.128Z,80.28
2022-12-01T18:01:34.955Z,80.50
2022-12-01T18:04:01.552Z,79.85
2022-12-01T18:06:28.525Z,80.06
2022-12-01T18:08:56.643Z,79.45
2022-12-01T18:11:24.139Z,80.04
2022-12-01T18:13:51.816Z,79.98
2022-12-01T18:16:22.339Z,80.36
2022-12-01T18:18:49.707Z,80.46
2022-12-01T18:21:19.679Z,80.02
2022-12-01T18:23:51.153Z,80.84
2022-12-01T18:26:19.703Z,81.29
2022-12-01T18:28:46.375Z,81.08
2022-12-01T18:31:16.073Z,81.79
2022-12-01T18:33:44.846Z,81.72
2022-12-01T18:36:14.211Z,81.65
2022-12-01T18:38:41.431Z,81.77
2022-12-01T18:41:08.042Z,82.01
2022-12-01T18:43:34.584Z,81.75
2022-12-01T18:46:03.947Z,81.64
2022-12-01T18:48:30.730Z,81.56
2022-12-01T18:51:02.586Z,81.95
2022-12-01T18:53:30.944Z,81.59
2022-12-01T18:56:00.788Z,82.19
2022-12-01T18:58:27.299Z,81.98
2022-12-01T19:00:53.977Z,81.95
2022-12-01T19:03:20.918Z,82.23
2022-12-01T19:05:47.441Z,81.76
2022-12-01T19:08:14.720Z,82.19
2022-12-01T19:10:41.321Z,82.26
2022-12-01T19:13:08.048Z,82.56
2022-12-01T19:15:36.856Z,81.93
2022-12-01T19:18:03.693Z,82.24
2022-12-01T19:20:30.171Z,82.54
2022-12-01T19:22:56.774Z,82.94
2022-12-01T19:25:23.418Z,82.88
2022-12-01T19:27:51.149Z,82.97
2022-12-01T19:30:17.917Z,83.20
2022-12-01T19:32:44.632Z,82.81
2022-12-01T19:35:11.349Z,82.80
2022-12-01T19:37:38.015Z,83.42
2022-12-01T19:40:04.877Z,82.72
2022-12-01T19:42:31.490Z,82.91
2022-12-01T19:44:58.666Z,83.13
2022-12-01T19:47:25.222Z,83.06
2022-12-01T19:49:51.725Z,83.17
2022-12-01T19:52:18.257Z,83.34
2022-12-01T19:54:44.781Z,83.28
2022-12-01T19:57:11.262Z,83.10
2022-12-01T19:59:37.710Z,83.37
2022-12-01T20:02:04.408Z,83.51
2022-12-01T20:04:31.133Z,83.48
2022-12-01T20:06:57.584Z,83.53
2022-12-01T20:09:24.095Z,83.86
2022-12-01T20:11:50.934Z,83.81
2022-12-01T20:14:17.569Z,83.76
2022-12-01T20:16:44.266Z,83.85
2022-12-01T20:19:11.084Z,83.88
2022-12-01T20:21:42.471Z,83.88
2022-12-01T20:24:13.287Z,83.85
2022-12-01T20:26:47.886Z,83.66
2022-12-01T20:29:17.593Z,83.83
2022-12-01T20:31:44.898Z,83.84
2022-12-01T20:34:15.771Z,83.64
2022-12-01T20:36:42.676Z,83.84
2022-12-01T20:39:11.357Z,83.70
2022-12-01T20:41:39.161Z,84.03
2022-12-01T20:44:07.952Z,83.98
2022-12-01T20:46:36.030Z,84.05
2022-12-01T20:49:02.694Z,83.91
2022-12-01T20:51:33.125Z,83.89
2022-12-01T20:54:26.720Z,84.00
2022-12-01T20:56:48.131Z,83.94
2022-12-01T20:59:14.691Z,83.65
2022-12-01T21:01:41.437Z,83.86
2022-12-01T21:04:08.684Z,83.49
2022-12-01T21:06:35.319Z,82.93
2022-12-01T21:09:03.149Z,82.80
2022-12-01T21:11:53.876Z,82.78
2022-12-01T21:14:35.741Z,82.16
2022-12-01T21:17:14.815Z,83.26
2022-12-01T21:19:52.574Z,83.42
2022-12-01T21:22:20.542Z,81.75
2022-12-01T21:25:19.626Z,82.62
2022-12-01T21:27:47.067Z,81.90
2022-12-01T21:30:20.900Z,83.63
2022-12-01T21:32:49.337Z,82.10
2022-12-01T21:35:20.099Z,82.22
2022-12-01T21:37:48.795Z,82.39
2022-12-01T21:40:20.848Z,82.87
2022-12-01T21:42:48.358Z,83.29
2022-12-01T21:45:29.337Z,82.08
2022-12-01T21:48:06.304Z,83.41
2022-12-01T21:50:32.876Z,84.41
2022-12-01T21:52:59.750Z,82.85
2022-12-01T21:55:46.879Z,84.14
2022-12-01T21:58:23.684Z,84.03
2022-12-01T22:00:51.350Z,83.68
2022-12-01T22:03:50.388Z,84.06
2022-12-01T22:06:30.597Z,83.62
2022-12-01T22:09:02.523Z,83.98
2022-12-01T22:11:31.215Z,83.74
2022-12-01T22:14:18.746Z,82.85
2022-12-01T22:16:49.971Z,82.54
2022-12-01T22:19:42.441Z,83.11
2022-12-01T22:22:29.312Z,82.41
2022-12-01T22:25:21.347Z,82.86
2022-12-01T22:27:48.013Z,82.94
2022-12-01T22:30:20.552Z,82.75
2022-12-01T22:32:56.676Z,83.55
2022-12-01T22:35:48.322Z,82.49
2022-12-01T22:38:41.119Z,83.38
2022-12-01T22:41:20.048Z,83.74
2022-12-01T22:44:00.630Z,83.03
2022-12-01T22:46:34.843Z,83.15
2022-12-01T22:49:28.605Z,84.01
2022-12-01T22:52:27.099Z,82.51
2022-12-01T22:54:54.179Z,81.35
2022-12-01T22:57:26.586Z,82.20
2022-12-01T22:59:54.159Z,81.95
2022-12-01T23:02:22.493Z,82.41
2022-12-01T23:04:54.699Z,81.96
2022-12-01T23:07:47.591Z,81.28
2022-12-01T23:10:34.888Z,81.33
2022-12-01T23:13:13.531Z,80.58
2022-12-01T23:15:44.274Z,81.06
2022-12-01T23:18:24.135Z,81.29
2022-12-01T23:20:53.162Z,81.33
2022-12-01T23:23:24.962Z,81.81
2022-12-01T23:25:51.572Z,81.85
2022-12-01T23:28:19.327Z,81.52
2022-12-01T23:30:49.417Z,80.61
2022-12-01T23:33:28.175Z,81.41
2022-12-01T23:36:17.729Z,82.19
2022-12-01T23:38:49.976Z,81.08
2022-12-01T23:41:32.891Z,80.94
2022-12-01T23:44:09.008Z,80.70
2022-12-01T23:46:36.669Z,80.69
2022-12-01T23:49:09.344Z,81.33
2022-12-01T23:51:44.197Z,80.56
2022-12-01T23:54:18.048Z,80.98
2022-12-01T23:56:50.432Z,81.55
2022-12-01T23:59:18.187Z,80.67
